Time;durP1;ratioP1;P1;durP2;ratioP2;P2;SDS_P1;SDS_P2;PMS_P1;PMS_P2;Temp;Humidity;BMP_temperature;BMP_pressure;BME280_temperature;BME280_humidity;BME280_pressure;Samples;Min_cycle;Max_cycle;Signal;HPM_P1;HPM_P2
2023/09/11 00:02:41;;;;;;;9.47;7.13;;;;;;;23.38;55.88;98687.28;7016499;28;20221;-85
2023/09/11 00:06:03;;;;;;;7.37;6.67;;;;;;;22.92;56.44;98611.78;7019959;28;20309;-85
2023/09/11 00:09:24;;;;;;;7.50;6.80;;;;;;;23.42;56.84;98695.78;7027118;28;20676;-85
2023/09/11 00:12:47;;;;;;;9.47;6.97;;;;;;;23.40;56.97;98696.06;6983806;28;20231;-84
2023/09/11 00:16:09;;;;;;;11.97;7.33;;;;;;;23.41;56.82;98689.44;6998209;28;20218;-85
2023/09/11 00:19:30;;;;;;;9.40;8.47;;;;;;;23.06;57.16;98666.94;6998636;28;20239;-85
2023/09/11 00:22:52;;;;;;;7.97;7.03;;;;;;;23.15;57.62;98682.53;6998573;28;20609;-85
2023/09/11 00:26:14;;;;;;;14.40;7.90;;;;;;;22.95;58.63;98684.63;6998369;28;20627;-84
2023/09/11 00:29:37;;;;;;;8.00;7.27;;;;;;;23.19;58.03;98671.78;6998669;28;20351;-85
2023/09/11 00:32:58;;;;;;;8.57;7.50;;;;;;;23.25;56.70;98635.66;6987772;28;20675;-84
2023/09/11 00:36:19;;;;;;;8.03;7.20;;;;;;;23.66;56.22;98685.63;6997368;28;20301;-85
2023/09/11 00:39:41;;;;;;;8.40;7.60;;;;;;;23.55;56.22;98676.63;6998179;28;20292;-85
2023/09/11 00:43:02;;;;;;;7.50;6.73;;;;;;;23.58;56.29;98683.47;6998420;28;20697;-85
2023/09/11 00:46:25;;;;;;;7.97;6.53;;;;;;;23.50;56.11;98679.47;6997442;28;20359;-84
2023/09/11 00:49:47;;;;;;;12.40;7.40;;;;;;;23.42;56.43;98688.31;6998131;28;20207;-84
2023/09/11 00:53:21;;;;;;;10.33;8.27;;;;;;;23.21;57.16;98680.56;7008074;28;20207;-85
2023/09/11 00:56:43;;;;;;;11.73;9.03;;;;;;;21.95;60.38;98630.31;6981531;28;20283;-85
2023/09/11 01:00:06;;;;;;;11.20;7.60;;;;;;;22.12;59.55;98606.03;6997878;28;20252;-84
2023/09/11 01:03:29;;;;;;;9.00;8.17;;;;;;;22.21;59.02;98579.59;6997523;28;20272;-84
2023/09/11 01:06:52;;;;;;;9.17;7.97;;;;;;;22.83;59.02;98675.91;6997137;28;20231;-86
2023/09/11 01:10:14;;;;;;;8.23;7.43;;;;;;;22.98;58.61;98667.53;6997567;28;20835;-86
2023/09/11 01:13:35;;;;;;;9.23;8.33;;;;;;;22.99;58.48;98659.00;6997651;28;20298;-86
2023/09/11 01:17:01;;;;;;;8.13;7.30;;;;;;;23.10;57.99;98654.22;6996881;28;20242;-85
2023/09/11 01:20:38;;;;;;;10.80;8.13;;;;;;;22.91;58.42;98667.03;6997451;28;20617;-85
2023/09/11 01:24:13;;;;;;;9.53;8.53;;;;;;;22.81;59.06;98654.22;6996657;28;20215;-86
2023/09/11 01:27:51;;;;;;;10.90;8.23;;;;;;;23.02;58.61;98646.59;6969224;28;20249;-86
2023/09/11 01:31:14;;;;;;;10.47;8.50;;;;;;;22.91;58.66;98651.38;6969767;28;20183;-86
2023/09/11 01:34:35;;;;;;;10.33;8.90;;;;;;;22.60;59.70;98647.22;7002841;28;20266;-84
2023/09/11 01:37:58;;;;;;;9.13;8.30;;;;;;;22.99;59.52;98637.00;7010014;28;20203;-84
2023/09/11 01:41:20;;;;;;;12.73;8.73;;;;;;;22.74;59.37;98586.91;7027963;28;20243;-84
2023/09/11 01:44:44;;;;;;;10.07;8.73;;;;;;;22.99;59.22;98639.75;7007578;28;20693;-84
2023/09/11 01:48:08;;;;;;;10.20;9.17;;;;;;;22.18;59.30;98503.28;7024728;28;20213;-84
2023/09/11 01:51:30;;;;;;;10.93;9.83;;;;;;;23.17;59.22;98646.47;7005720;28;20338;-84
2023/09/11 01:54:52;;;;;;;11.60;9.23;;;;;;;23.18;58.98;98643.44;7001095;28;20243;-84
2023/09/11 01:58:13;;;;;;;10.93;9.63;;;;;;;23.06;58.86;98642.19;7000167;28;20298;-84
2023/09/11 02:01:35;;;;;;;10.17;9.17;;;;;;;23.24;58.01;98627.72;7001172;28;20263;-84
2023/09/11 02:04:58;;;;;;;9.87;8.97;;;;;;;23.23;58.28;98634.31;7009150;28;20306;-84
2023/09/11 02:08:19;;;;;;;11.30;10.10;;;;;;;23.11;58.99;98640.19;7003966;28;20231;-84
2023/09/11 02:11:41;;;;;;;10.40;9.37;;;;;;;23.04;59.26;98630.63;7020837;28;20754;-84
2023/09/11 02:15:02;;;;;;;11.50;9.60;;;;;;;22.96;59.11;98631.25;7029138;28;20307;-84
2023/09/11 02:18:24;;;;;;;12.87;9.93;;;;;;;22.40;59.65;98564.06;6974131;28;20210;-84
2023/09/11 02:21:49;;;;;;;11.73;9.63;;;;;;;23.02;59.31;98638.34;6974901;28;20247;-84
2023/09/11 02:25:10;;;;;;;10.73;9.63;;;;;;;23.16;59.24;98634.66;6973219;28;20228;-85
2023/09/11 02:28:32;;;;;;;10.93;9.83;;;;;;;22.72;59.33;98556.16;6968631;28;20356;-86
2023/09/11 02:31:54;;;;;;;10.90;9.67;;;;;;;23.26;59.21;98609.78;7006313;28;20196;-85
2023/09/11 02:35:15;;;;;;;10.20;9.20;;;;;;;23.49;58.75;98630.19;6996625;28;20704;-86
2023/09/11 02:38:38;;;;;;;11.60;9.67;;;;;;;23.06;59.50;98576.97;6995771;28;20263;-85
2023/09/11 02:42:00;;;;;;;11.60;9.70;;;;;;;22.90;59.63;98547.19;7002963;28;20224;-85
2023/09/11 02:45:21;;;;;;;10.80;9.80;;;;;;;22.96;59.33;98546.81;7024103;28;20308;-85
2023/09/11 02:48:44;;;;;;;9.80;8.90;;;;;;;23.44;59.81;98620.06;7028796;28;20345;-86
2023/09/11 02:52:06;;;;;;;11.00;9.90;;;;;;;23.34;60.07;98624.84;7003643;28;20212;-85
2023/09/11 02:55:29;;;;;;;11.73;9.67;;;;;;;23.05;59.25;98561.59;7008618;28;20227;-85
2023/09/11 02:58:51;;;;;;;11.47;10.20;;;;;;;23.51;59.41;98614.19;7010279;28;20218;-84
2023/09/11 03:02:12;;;;;;;11.17;10.07;;;;;;;23.46;59.49;98619.75;7030434;28;20242;-84
2023/09/11 03:05:34;;;;;;;11.80;9.90;;;;;;;23.43;59.30;98615.66;7045185;28;20280;-84
2023/09/11 03:08:55;;;;;;;10.17;8.87;;;;;;;23.47;58.85;98599.38;7045751;28;20231;-84
2023/09/11 03:12:18;;;;;;;10.97;9.57;;;;;;;23.33;59.90;98615.78;7045278;28;20259;-84
2023/09/11 03:15:39;;;;;;;11.00;9.90;;;;;;;22.87;61.42;98625.56;7022553;28;20232;-84
2023/09/11 03:19:01;;;;;;;11.20;10.10;;;;;;;22.44;62.34;98622.88;7001813;28;20699;-86
2023/09/11 03:22:23;;;;;;;11.17;9.97;;;;;;;23.23;60.78;98620.56;7009729;28;20309;-86
2023/09/11 03:25:47;;;;;;;10.70;9.70;;;;;;;23.03;58.98;98533.56;7028315;28;20232;-86
2023/09/11 03:29:10;;;;;;;12.60;9.47;;;;;;;23.81;58.36;98624.84;7011618;28;20195;-85
2023/09/11 03:32:32;;;;;;;11.17;9.07;;;;;;;23.69;57.91;98625.28;7013124;28;20228;-84
2023/09/11 03:35:53;;;;;;;12.70;10.70;;;;;;;23.60;57.85;98628.97;7023502;28;20210;-85
2023/09/11 03:39:15;;;;;;;11.60;9.90;;;;;;;23.35;57.76;98591.53;7035990;28;20226;-84
2023/09/11 03:42:36;;;;;;;13.23;11.33;;;;;;;23.38;57.86;98617.66;7046678;28;20233;-84
2023/09/11 03:45:59;;;;;;;15.40;10.43;;;;;;;23.16;58.52;98634.66;7026381;28;20223;-84
2023/09/11 03:49:20;;;;;;;11.50;10.37;;;;;;;23.31;58.81;98637.25;7024854;28;20233;-83
2023/09/11 03:52:42;;;;;;;12.97;10.13;;;;;;;22.98;58.41;98605.13;7008365;28;20286;-84
2023/09/11 03:56:04;;;;;;;14.87;10.80;;;;;;;23.06;58.81;98626.47;7004905;28;20308;-84
2023/09/11 03:59:25;;;;;;;12.53;11.43;;;;;;;23.16;58.30;98633.81;7027039;28;20700;-86
2023/09/11 04:02:48;;;;;;;15.80;10.40;;;;;;;22.84;59.26;98617.88;7027617;28;20318;-86
2023/09/11 04:06:10;;;;;;;12.70;10.23;;;;;;;22.76;59.28;98623.16;6999597;28;20306;-85
2023/09/11 04:09:32;;;;;;;12.37;10.17;;;;;;;22.84;59.39;98626.13;7001682;28;20208;-85
2023/09/11 04:12:54;;;;;;;12.43;11.10;;;;;;;23.10;58.36;98627.53;6985992;28;20199;-85
2023/09/11 04:16:15;;;;;;;12.60;10.27;;;;;;;22.82;58.50;98619.25;6997988;28;20712;-85
2023/09/11 04:19:39;;;;;;;15.50;10.80;;;;;;;22.64;58.93;98593.31;7000273;28;20206;-84
2023/09/11 04:23:00;;;;;;;11.87;10.67;;;;;;;22.60;59.34;98619.72;6986780;28;20240;-84
2023/09/11 04:26:22;;;;;;;11.60;10.60;;;;;;;22.59;59.17;98618.09;6989546;28;20284;-84
2023/09/11 04:29:44;;;;;;;13.93;11.83;;;;;;;22.07;60.35;98628.03;6997586;28;20203;-83
2023/09/11 04:33:05;;;;;;;12.23;11.03;;;;;;;21.98;61.01;98627.81;6994923;28;20701;-84
2023/09/11 04:36:28;;;;;;;13.87;11.43;;;;;;;21.53;62.20;98636.19;6997240;28;20363;-84
2023/09/11 04:39:50;;;;;;;13.60;11.67;;;;;;;22.13;60.84;98633.19;6997806;28;20295;-84
2023/09/11 04:43:11;;;;;;;12.57;10.70;;;;;;;22.23;60.68;98633.16;6996754;28;20384;-84
2023/09/11 04:46:33;;;;;;;13.40;11.60;;;;;;;22.12;60.15;98630.75;6986722;28;20326;-84
2023/09/11 04:49:54;;;;;;;14.97;11.40;;;;;;;21.78;61.36;98630.63;6978287;28;20243;-84
2023/09/11 04:53:18;;;;;;;12.50;10.83;;;;;;;21.97;61.37;98628.09;6984308;28;20229;-84
2023/09/11 04:56:40;;;;;;;12.27;10.67;;;;;;;21.89;61.03;98614.97;6995551;28;20310;-84
2023/09/11 05:00:02;;;;;;;14.30;11.13;;;;;;;21.99;60.59;98623.94;6981998;28;20291;-82
2023/09/11 05:03:23;;;;;;;13.53;11.23;;;;;;;22.07;60.79;98628.03;6995136;28;20259;-84
2023/09/11 05:06:45;;;;;;;13.23;10.93;;;;;;;21.68;60.53;98577.72;6998400;28;20253;-85
2023/09/11 05:10:09;;;;;;;11.73;10.53;;;;;;;22.06;60.77;98620.91;6978028;28;20626;-84
2023/09/11 05:13:31;;;;;;;13.67;11.07;;;;;;;22.03;60.46;98618.72;6984207;28;20202;-84
2023/09/11 05:16:53;;;;;;;14.53;11.80;;;;;;;22.05;60.02;98641.22;6971376;28;20223;-85
2023/09/11 05:20:15;;;;;;;14.13;12.73;;;;;;;22.17;60.35;98634.28;6970826;28;20648;-84
2023/09/11 05:23:36;;;;;;;13.97;12.47;;;;;;;22.21;60.46;98632.63;6990105;28;20357;-83
2023/09/11 05:26:59;;;;;;;13.57;11.63;;;;;;;22.39;59.70;98612.72;6983054;28;20895;-83
2023/09/11 05:30:20;;;;;;;11.80;10.67;;;;;;;22.35;60.10;98608.91;7023325;28;20227;-82
2023/09/11 05:33:42;;;;;;;11.50;10.37;;;;;;;22.65;58.87;98636.19;7002797;28;20290;-83
2023/09/11 05:37:04;;;;;;;14.33;10.23;;;;;;;21.99;59.19;98533.34;6987745;28;20315;-82
2023/09/11 05:40:25;;;;;;;11.17;10.13;;;;;;;22.77;58.54;98628.38;6998876;28;20347;-82
2023/09/11 05:43:48;;;;;;;10.97;9.87;;;;;;;22.79;58.74;98620.69;6998026;28;20344;-84
2023/09/11 05:47:10;;;;;;;10.10;9.20;;;;;;;22.81;58.46;98607.47;6997313;28;20759;-83
2023/09/11 05:50:31;;;;;;;14.73;10.60;;;;;;;22.87;59.36;98638.47;6997516;28;20275;-83
2023/09/11 05:53:53;;;;;;;11.63;9.73;;;;;;;22.93;59.19;98620.81;6997804;28;20383;-81
2023/09/11 05:57:14;;;;;;;11.00;8.83;;;;;;;23.31;57.31;98606.97;6998410;28;20322;-82
2023/09/11 06:00:37;;;;;;;10.20;9.20;;;;;;;23.81;57.18;98647.72;7000545;28;20213;-83
2023/09/11 06:03:59;;;;;;;9.77;8.87;;;;;;;24.12;56.48;98640.72;7004377;28;20309;-84
2023/09/11 06:07:20;;;;;;;12.50;8.20;;;;;;;24.85;53.88;98621.72;7000946;28;20584;-84
2023/09/11 06:10:43;;;;;;;9.67;8.03;;;;;;;25.27;53.49;98643.63;6993722;28;20214;-84
2023/09/11 06:14:06;;;;;;;9.77;8.43;;;;;;;25.44;52.21;98636.41;6972660;28;20297;-83
2023/09/11 06:17:29;;;;;;;11.07;8.80;;;;;;;25.53;52.52;98644.78;6973599;28;20350;-84
2023/09/11 06:20:50;;;;;;;10.07;8.93;;;;;;;25.95;51.80;98639.00;6996721;28;20636;-84
2023/09/11 06:24:12;;;;;;;12.70;9.07;;;;;;;25.61;53.18;98653.16;7002269;28;20626;-86
2023/09/11 06:27:34;;;;;;;12.00;8.73;;;;;;;25.90;51.76;98648.19;6986102;28;20306;-83
2023/09/11 06:30:56;;;;;;;9.07;8.17;;;;;;;25.94;51.49;98652.00;6974549;28;20214;-85
2023/09/11 06:34:19;;;;;;;9.90;8.23;;;;;;;26.55;51.05;98652.31;6994957;28;20217;-85
2023/09/11 06:37:41;;;;;;;10.63;9.10;;;;;;;26.52;50.33;98652.91;6986582;28;20308;-84
2023/09/11 06:41:03;;;;;;;9.03;8.13;;;;;;;26.64;50.22;98656.00;6988666;28;20598;-84
2023/09/11 06:44:24;;;;;;;8.77;7.87;;;;;;;26.16;51.21;98629.13;7000054;28;20232;-85
2023/09/11 06:47:46;;;;;;;10.07;8.60;;;;;;;26.78;50.48;98655.94;6997863;28;20282;-85
2023/09/11 06:51:09;;;;;;;12.63;8.70;;;;;;;26.98;50.02;98658.19;7000517;28;20297;-85
2023/09/11 06:54:30;;;;;;;10.50;8.40;;;;;;;27.07;49.38;98618.38;6997579;28;20674;-85
2023/09/11 06:57:56;;;;;;;9.43;8.13;;;;;;;27.09;50.45;98648.50;6991820;28;20233;-85
2023/09/11 07:01:18;;;;;;;11.80;7.83;;;;;;;27.39;48.78;98643.03;7000277;28;20654;-86
2023/09/11 07:04:39;;;;;;;9.27;7.83;;;;;;;27.36;48.24;98642.88;6979342;28;20272;-85
2023/09/11 07:08:02;;;;;;;8.87;7.73;;;;;;;28.12;46.87;98645.97;6975797;28;20686;-86
2023/09/11 07:11:24;;;;;;;8.43;7.57;;;;;;;28.64;45.33;98631.06;6987638;28;20663;-85
2023/09/11 07:14:45;;;;;;;8.73;7.67;;;;;;;29.47;43.54;98629.63;6999615;28;21000;-85
2023/09/11 07:18:08;;;;;;;9.63;7.50;;;;;;;29.55;44.09;98634.41;6981149;28;20335;-85
2023/09/11 07:21:30;;;;;;;8.77;7.93;;;;;;;30.10;42.41;98610.13;7000309;28;20187;-85
2023/09/11 07:24:53;;;;;;;10.40;6.70;;;;;;;30.45;41.90;98634.59;7000574;28;20254;-85
2023/09/11 07:28:15;;;;;;;8.23;7.43;;;;;;;30.40;41.12;98645.94;7000407;28;20299;-86
2023/09/11 07:31:36;;;;;;;8.57;7.27;;;;;;;30.63;40.98;98638.88;6986205;28;20351;-86
2023/09/11 07:34:58;;;;;;;8.67;7.50;;;;;;;31.38;39.32;98648.88;6976825;28;20398;-86
2023/09/11 07:38:19;;;;;;;8.60;6.53;;;;;;;31.07;39.26;98632.63;6998512;28;20205;-85
2023/09/11 07:41:42;;;;;;;9.77;7.13;;;;;;;31.26;38.80;98593.94;7032260;28;20194;-86
2023/09/11 07:45:04;;;;;;;7.40;6.70;;;;;;;31.91;38.03;98621.69;7014530;28;20678;-85
2023/09/11 07:48:26;;;;;;;7.80;7.00;;;;;;;31.05;39.04;98503.19;6998104;28;20212;-86
2023/09/11 07:51:47;;;;;;;7.50;6.80;;;;;;;32.40;37.18;98636.47;6978556;28;20214;-85
2023/09/11 07:55:09;;;;;;;10.00;6.83;;;;;;;31.93;36.94;98560.81;6991528;28;20224;-85
2023/09/11 07:58:32;;;;;;;7.73;6.17;;;;;;;32.56;37.18;98632.63;6998549;28;20249;-85
2023/09/11 08:01:54;;;;;;;8.93;7.20;;;;;;;32.08;36.86;98629.03;6999134;28;20299;-85
2023/09/11 08:05:16;;;;;;;7.67;6.73;;;;;;;32.70;36.94;98607.91;6984560;28;20263;-84
2023/09/11 08:08:38;;;;;;;8.77;6.70;;;;;;;32.42;35.96;98533.66;6972779;28;20296;-85
2023/09/11 08:12:00;;;;;;;7.60;6.43;;;;;;;33.44;34.72;98598.88;6998470;28;20239;-84
2023/09/11 08:15:23;;;;;;;7.20;6.50;;;;;;;33.52;35.20;98635.03;6998104;28;20253;-86
2023/09/11 08:18:45;;;;;;;8.07;6.93;;;;;;;33.50;34.59;98623.38;6997382;28;20214;-85
2023/09/11 08:22:06;;;;;;;7.53;6.83;;;;;;;33.19;34.62;98558.22;6984632;28;20735;-85
2023/09/11 08:25:28;;;;;;;8.80;6.90;;;;;;;32.89;36.38;98632.44;6970574;28;20784;-85
2023/09/11 08:28:50;;;;;;;8.83;6.77;;;;;;;33.71;34.93;98628.72;6995068;28;20278;-85
2023/09/11 08:32:12;;;;;;;6.90;5.87;;;;;;;33.89;33.63;98630.84;6998678;28;20354;-86
2023/09/11 08:35:34;;;;;;;11.23;7.30;;;;;;;32.78;35.87;98623.72;6998050;28;20663;-86
2023/09/11 08:38:55;;;;;;;8.50;6.50;;;;;;;32.93;36.69;98638.91;6997494;28;20784;-85
2023/09/11 08:42:17;;;;;;;7.03;6.40;;;;;;;31.32;38.59;98556.31;6998236;28;20239;-85
2023/09/11 08:45:39;;;;;;;7.67;6.77;;;;;;;31.83;39.27;98639.34;6992722;28;20258;-83
2023/09/11 08:49:03;;;;;;;8.43;6.20;;;;;;;32.62;37.98;98636.78;6998558;28;20229;-84
2023/09/11 08:52:26;;;;;;;8.13;6.97;;;;;;;32.46;38.06;98635.06;6980349;28;20563;-85
2023/09/11 08:55:48;;;;;;;10.73;6.93;;;;;;;32.57;37.00;98606.31;6995633;28;20233;-85
2023/09/11 08:59:11;;;;;;;10.47;6.70;;;;;;;32.71;37.43;98642.19;6980538;28;20569;-87
2023/09/11 09:02:34;;;;;;;7.17;6.50;;;;;;;32.66;36.73;98634.09;6970944;28;20240;-84
2023/09/11 09:06:00;;;;;;;6.67;6.07;;;;;;;32.12;37.54;98638.31;6972467;28;20581;-83
2023/09/11 09:09:22;;;;;;;8.23;5.90;;;;;;;32.32;36.37;98528.56;6974652;28;20541;-83
2023/09/11 09:12:44;;;;;;;8.17;6.93;;;;;;;32.24;36.89;98629.94;6973845;28;20245;-84
2023/09/11 09:16:05;;;;;;;9.90;6.73;;;;;;;32.66;35.75;98495.28;6975143;28;20710;-84
2023/09/11 09:19:27;;;;;;;6.83;6.23;;;;;;;34.23;33.81;98612.47;6994931;28;20508;-84
2023/09/11 09:22:55;;;;;;;7.97;6.37;;;;;;;34.36;33.73;98614.84;6988922;28;20244;-80
2023/09/11 09:26:16;;;;;;;7.87;6.13;;;;;;;34.96;32.40;98599.38;7006153;28;20725;-81
2023/09/11 09:29:39;;;;;;;7.97;6.30;;;;;;;34.67;33.26;98613.94;6998370;28;20659;-82
2023/09/11 09:33:03;;;;;;;6.77;5.93;;;;;;;34.23;33.08;98607.72;7017269;28;20207;-84
2023/09/11 09:36:24;;;;;;;8.27;6.17;;;;;;;32.60;34.45;98613.16;7001031;28;20228;-83
2023/09/11 09:39:50;;;;;;;9.17;6.50;;;;;;;34.07;33.04;98603.31;6993039;28;20201;-82
2023/09/11 09:43:16;;;;;;;7.47;5.57;;;;;;;34.16;31.43;98512.38;6989465;28;20270;-82
2023/09/11 09:46:42;;;;;;;8.77;6.00;;;;;;;33.50;33.01;98600.22;7001128;28;20218;-81
2023/09/11 09:50:04;;;;;;;6.77;5.37;;;;;;;33.65;33.27;98594.63;7006255;28;20279;-83
2023/09/11 09:53:27;;;;;;;9.37;5.97;;;;;;;33.99;33.07;98596.72;6988425;28;20295;-81
2023/09/11 09:56:50;;;;;;;11.17;7.63;;;;;;;34.99;32.22;98596.66;7008815;28;20281;-83
2023/09/11 10:00:17;;;;;;;8.63;6.30;;;;;;;35.04;29.98;98585.13;7016321;28;20316;-83
2023/09/11 10:03:40;;;;;;;8.07;5.90;;;;;;;35.33;29.95;98524.81;6990106;28;20222;-83
2023/09/11 10:07:02;;;;;;;8.90;5.43;;;;;;;36.38;28.21;98583.50;6991451;28;20344;-82
2023/09/11 10:10:25;;;;;;;8.23;6.00;;;;;;;36.29;28.39;98582.19;6984801;28;20202;-82
2023/09/11 10:13:48;;;;;;;7.83;5.07;;;;;;;35.53;28.76;98544.00;6990342;28;20234;-83
2023/09/11 10:17:09;;;;;;;7.77;5.27;;;;;;;35.35;27.62;98579.34;6999443;28;20278;-83
2023/09/11 10:20:31;;;;;;;6.57;4.87;;;;;;;33.77;30.14;98572.19;7002948;28;20402;-84
2023/09/11 10:23:54;;;;;;;6.80;5.50;;;;;;;34.53;29.96;98564.00;7003185;28;20876;-85
2023/09/11 10:27:16;;;;;;;7.97;5.00;;;;;;;34.86;28.58;98547.53;7016432;28;20225;-84
2023/09/11 10:30:46;;;;;;;10.30;5.60;;;;;;;35.74;27.74;98555.66;7030756;28;20287;-82
2023/09/11 10:34:11;;;;;;;10.73;6.03;;;;;;;34.98;29.25;98549.38;7026194;28;20266;-79
2023/09/11 10:37:37;;;;;;;8.27;6.00;;;;;;;34.17;29.63;98553.19;7004586;28;20218;-83
2023/09/11 10:40:59;;;;;;;7.93;5.53;;;;;;;35.87;28.80;98559.03;7011339;28;20301;-82
2023/09/11 10:44:21;;;;;;;7.03;5.27;;;;;;;36.56;28.31;98544.44;7000608;28;20230;-84
2023/09/11 10:47:51;;;;;;;8.77;6.07;;;;;;;35.89;26.83;98539.84;7002297;28;20264;-83
2023/09/11 10:51:14;;;;;;;8.83;4.43;;;;;;;34.97;27.40;98528.13;7002582;28;20201;-84
2023/09/11 10:54:36;;;;;;;6.43;4.93;;;;;;;35.77;27.24;98546.47;7000799;28;20279;-84
2023/09/11 10:57:58;;;;;;;9.53;5.17;;;;;;;34.54;28.02;98542.44;7001729;28;20306;-84
2023/09/11 11:01:19;;;;;;;7.73;4.77;;;;;;;36.24;25.42;98512.28;7002698;28;20245;-84
2023/09/11 11:04:42;;;;;;;6.33;4.90;;;;;;;36.78;24.74;98523.88;6995989;28;20260;-84
2023/09/11 11:08:04;;;;;;;6.57;4.67;;;;;;;35.14;26.77;98463.19;7029279;28;20294;-84
2023/09/11 11:11:27;;;;;;;10.43;4.63;;;;;;;35.47;26.88;98483.81;7004073;28;20289;-84
2023/09/11 11:15:20;;;;;;;7.27;4.70;;;;;;;36.86;25.42;98522.75;7004023;28;20241;-84
2023/09/11 11:18:42;;;;;;;5.97;4.70;;;;;;;37.08;25.17;98508.56;7001513;28;20203;-84
2023/09/11 11:22:07;;;;;;;11.37;5.47;;;;;;;36.77;26.00;98522.25;6979476;28;20211;-84
2023/09/11 11:25:28;;;;;;;7.40;4.87;;;;;;;35.78;27.09;98513.59;6973600;28;20266;-84
2023/09/11 11:28:50;;;;;;;9.00;4.83;;;;;;;36.25;26.94;98506.31;6972864;28;20337;-84
2023/09/11 11:32:12;;;;;;;7.07;5.20;;;;;;;35.93;26.79;98505.03;6993163;28;20228;-84
2023/09/11 11:35:34;;;;;;;8.83;5.37;;;;;;;36.58;26.99;98494.28;7000324;28;20264;-84
2023/09/11 11:38:59;;;;;;;7.90;4.83;;;;;;;37.49;25.59;98495.31;6999790;28;20206;-83
2023/09/11 11:42:20;;;;;;;6.83;4.93;;;;;;;37.25;25.99;98498.72;7000351;28;20197;-84
2023/09/11 11:45:44;;;;;;;10.20;5.43;;;;;;;36.13;27.39;98467.19;7000096;28;20268;-84
2023/09/11 11:49:06;;;;;;;7.43;5.33;;;;;;;36.18;26.90;98506.22;6999419;28;20569;-84
2023/09/11 11:52:27;;;;;;;5.67;4.70;;;;;;;37.56;25.70;98484.16;6999811;28;20198;-84
2023/09/11 11:55:50;;;;;;;8.37;4.67;;;;;;;37.46;26.13;98499.72;6998932;28;20222;-84
2023/09/11 11:59:12;;;;;;;6.17;5.17;;;;;;;36.45;26.20;98488.13;7000477;28;20247;-84
2023/09/11 12:02:33;;;;;;;7.90;5.03;;;;;;;36.50;26.93;98509.44;7000522;28;20644;-84
2023/09/11 12:05:55;;;;;;;7.30;4.90;;;;;;;35.61;27.57;98469.22;6999577;28;20237;-84
2023/09/11 12:09:19;;;;;;;8.27;5.10;;;;;;;37.08;25.65;98468.38;7000326;28;20241;-84
2023/09/11 12:12:42;;;;;;;9.47;5.10;;;;;;;37.96;24.58;98484.84;6999767;28;20212;-84
2023/09/11 12:16:03;;;;;;;12.30;5.60;;;;;;;37.57;25.20;98492.22;6976575;28;20254;-84
2023/09/11 12:19:25;;;;;;;6.10;4.70;;;;;;;36.98;25.99;98492.41;6971723;28;20298;-84
2023/09/11 12:22:47;;;;;;;7.77;4.60;;;;;;;37.55;26.12;98497.41;6971317;28;20258;-85
2023/09/11 12:26:09;;;;;;;8.00;4.30;;;;;;;36.38;26.31;98502.06;7009774;28;20275;-83
2023/09/11 12:29:33;;;;;;;10.40;4.50;;;;;;;37.06;25.61;98484.81;6989058;28;20726;-84
2023/09/11 12:32:54;;;;;;;8.10;4.40;;;;;;;36.74;26.24;98487.31;6998510;28;20344;-84
2023/09/11 12:36:20;;;;;;;6.77;4.50;;;;;;;35.85;26.69;98472.41;7007531;28;20230;-84
2023/09/11 12:39:41;;;;;;;7.03;4.50;;;;;;;36.50;25.89;98430.78;7002888;28;20198;-84
2023/09/11 12:43:03;;;;;;;8.37;4.50;;;;;;;37.03;25.22;98463.13;7006517;28;20213;-84
2023/09/11 12:46:26;;;;;;;6.40;4.73;;;;;;;35.90;26.71;98476.91;7007473;28;20595;-84
2023/09/11 12:49:48;;;;;;;8.30;4.50;;;;;;;35.85;26.76;98475.22;7008436;28;20693;-84
2023/09/11 12:53:10;;;;;;;8.90;4.63;;;;;;;35.67;27.19;98459.28;7007261;28;20251;-85
2023/09/11 12:56:32;;;;;;;6.37;4.60;;;;;;;35.64;27.43;98462.84;6983306;28;20260;-84
2023/09/11 12:59:53;;;;;;;8.27;4.40;;;;;;;36.22;26.56;98462.16;7000719;28;20281;-84
2023/09/11 13:03:16;;;;;;;8.40;4.70;;;;;;;36.23;26.30;98446.91;7012629;28;20536;-84
2023/09/11 13:06:38;;;;;;;8.47;4.20;;;;;;;36.35;25.87;98469.13;7005576;28;20236;-84
2023/09/11 13:09:59;;;;;;;10.50;4.40;;;;;;;36.62;24.86;98391.19;7007522;28;20209;-84
2023/09/11 13:13:21;;;;;;;6.23;4.53;;;;;;;37.28;25.11;98427.63;6987808;28;20198;-85
2023/09/11 13:16:43;;;;;;;9.50;4.60;;;;;;;35.73;26.04;98438.16;6998081;28;20589;-84
2023/09/11 13:20:08;;;;;;;11.97;4.87;;;;;;;36.18;25.98;98447.25;7003650;28;20288;-85
2023/09/11 13:23:29;;;;;;;7.93;3.90;;;;;;;35.86;26.91;98436.75;7002215;28;20355;-84
2023/09/11 13:26:51;;;;;;;6.43;4.60;;;;;;;35.53;26.95;98423.41;7002391;28;20263;-84
2023/09/11 13:30:13;;;;;;;8.77;4.70;;;;;;;36.82;25.06;98420.72;7002799;28;20236;-84
2023/09/11 13:33:34;;;;;;;8.17;4.73;;;;;;;37.04;24.70;98417.75;7002522;28;20229;-83
2023/09/11 13:36:58;;;;;;;7.27;4.37;;;;;;;35.86;25.88;98422.72;7003386;28;20264;-84
2023/09/11 13:40:19;;;;;;;8.93;4.50;;;;;;;36.60;25.17;98435.72;7004529;28;20583;-84
2023/09/11 13:43:41;;;;;;;4.97;4.20;;;;;;;36.30;25.81;98429.31;7004154;28;20228;-84
2023/09/11 13:47:03;;;;;;;9.30;4.37;;;;;;;36.68;25.55;98420.59;7007171;28;20311;-85
2023/09/11 13:50:24;;;;;;;11.90;4.90;;;;;;;36.45;26.27;98417.09;7028922;28;20194;-84
2023/09/11 13:53:47;;;;;;;7.47;4.63;;;;;;;35.81;26.41;98411.81;7006455;28;20671;-84
2023/09/11 13:57:08;;;;;;;8.37;5.50;;;;;;;36.53;25.48;98416.78;7002133;28;20256;-84
2023/09/11 14:00:30;;;;;;;9.70;4.67;;;;;;;36.77;25.59;98415.44;7001167;28;20208;-85
2023/09/11 14:03:51;;;;;;;6.07;4.17;;;;;;;36.02;26.52;98398.09;6997262;28;20269;-84
2023/09/11 14:07:13;;;;;;;8.77;4.83;;;;;;;35.58;26.60;98391.41;6998142;28;20222;-84
2023/09/11 14:10:36;;;;;;;8.73;4.77;;;;;;;35.92;26.58;98377.09;6997237;28;20252;-85
2023/09/11 14:13:58;;;;;;;8.10;4.60;;;;;;;36.20;26.30;98422.41;6996480;28;20202;-85
2023/09/11 14:17:19;;;;;;;7.67;4.27;;;;;;;35.04;26.34;98307.66;6995712;28;20228;-84
2023/09/11 14:20:41;;;;;;;7.77;5.03;;;;;;;34.86;27.24;98409.41;6996516;28;20289;-84
2023/09/11 14:24:02;;;;;;;7.90;4.63;;;;;;;35.57;26.96;98403.81;6996162;28;20318;-85
2023/09/11 14:27:25;;;;;;;10.83;4.40;;;;;;;35.71;26.54;98371.19;6995179;28;20229;-84
2023/09/11 14:30:47;;;;;;;7.70;4.30;;;;;;;35.93;26.99;98398.38;6998287;28;20647;-85
2023/09/11 14:34:08;;;;;;;11.43;5.03;;;;;;;34.45;27.44;98338.22;6995805;28;20206;-84
2023/09/11 14:37:30;;;;;;;8.43;4.60;;;;;;;35.41;27.61;98363.91;6995177;28;20267;-84
2023/09/11 14:40:51;;;;;;;9.23;4.70;;;;;;;35.73;27.10;98391.25;6996468;28;20217;-84
2023/09/11 14:44:14;;;;;;;9.50;5.40;;;;;;;35.84;26.35;98388.63;7001153;28;20718;-85
2023/09/11 14:47:36;;;;;;;9.03;4.67;;;;;;;34.79;28.07;98382.06;7000550;28;20256;-84
2023/09/11 14:50:57;;;;;;;10.30;5.83;;;;;;;35.64;27.01;98378.66;7000687;28;20209;-85
2023/09/11 14:54:19;;;;;;;10.93;4.77;;;;;;;36.40;25.63;98381.72;6982264;28;20202;-84
2023/09/11 14:57:40;;;;;;;10.83;5.00;;;;;;;34.58;28.08;98367.69;6972184;28;20325;-84
2023/09/11 15:01:03;;;;;;;9.63;4.83;;;;;;;35.37;28.09;98371.47;6972729;28;20369;-84
2023/09/11 15:04:25;;;;;;;7.17;4.77;;;;;;;35.18;27.69;98374.31;6977866;28;20278;-84
2023/09/11 15:07:46;;;;;;;7.57;4.50;;;;;;;35.12;27.51;98373.84;6989367;28;20281;-85
2023/09/11 15:11:09;;;;;;;10.20;4.70;;;;;;;35.17;27.26;98295.03;6999314;28;20236;-85
2023/09/11 15:14:30;;;;;;;8.17;4.87;;;;;;;36.07;26.46;98361.25;6999422;28;20293;-85
2023/09/11 15:17:53;;;;;;;10.97;5.30;;;;;;;34.86;27.44;98370.19;6999891;28;20339;-85
2023/09/11 15:21:15;;;;;;;7.90;4.77;;;;;;;35.99;27.00;98365.97;7002362;28;20359;-84
2023/09/11 15:24:36;;;;;;;10.33;4.47;;;;;;;35.63;27.14;98351.81;7005149;28;20628;-85
2023/09/11 15:27:58;;;;;;;7.90;4.53;;;;;;;35.33;27.64;98351.78;7002235;28;20202;-86
2023/09/11 15:31:19;;;;;;;9.10;4.70;;;;;;;35.43;27.75;98367.94;7000369;28;20291;-85
2023/09/11 15:34:43;;;;;;;8.20;4.77;;;;;;;35.31;28.03;98365.34;6993164;28;20248;-83
2023/09/11 15:38:04;;;;;;;10.50;4.90;;;;;;;34.38;28.75;98362.47;7005022;28;20260;-84
2023/09/11 15:41:25;;;;;;;9.43;5.10;;;;;;;34.38;28.40;98363.28;6997691;28;20233;-82
2023/09/11 15:44:47;;;;;;;9.73;5.10;;;;;;;34.11;29.51;98369.09;6982601;28;20229;-83
2023/09/11 15:48:09;;;;;;;8.80;4.77;;;;;;;33.90;29.28;98372.28;6978946;28;20209;-84